Main page
METAR-TAF:

METAR-TAF

Airports :

Juazeiro do Norte Airport

Juazeiro do Norte, Ceará, Brazil

latitude: 07-13-06S, longitude: 039-16-18W, elevation: 424 m

Current weather observation

The report was made 3 hours and 13 minutes ago, at 20:00 UTC
Wind 8 kt from the Southeast
Temperature 34°C
Humidity 28%
Pressure 1014 hPa
Visibility 10 km or more
Few clouds at a height of 2200 ft

METAR: SBJU 202000Z 14008KT 9999 FEW022 34/13 Q1014

Time: 20:13 (23:13 UTC)


TAF: missing

Weather observations and forecasts of more than 4000 airports (METAR and TAF reports).

The available stations are represented by yellow and red dots on the map.

Hover mouse over dot to see the name of the station.

Then click to see weather observations and forecasts.

To change the map : click on the green buttons with a black cross to zoom in, on the green button with a dash to zoom out, or on the green arrows for adjacent maps.


METAR-TAF: